LOWI Airport Information

Runway Information
Runway 08 Length 6562 ft width 148 ft
Elevation 1906 ft Threshold 339 ft Heading 81
Runway 26 Length 6562 ft Width 148 ft
Elevation 1893 ft Threshold 198 ft Heading 261
Airport Frequencies
Type APP Name APP Frequency 119.275 MHZ
Type ATIS Name ATIS Frequency 126.025 MHZ
Type GND Crew Name Frequency 121.8 MHZ
Type GND Crew Name Frequency 121.9 MHZ
Type TWR Name TWR Frequency 120.1 MHZ
Airport Navaids
Type NDB Name Innsbruck Frequency 420 KHZ
Type NDB Name Kuhtai Frequency 413 KHZ
Airport Weather Information & NOTAM
ADDS - METARS form results

(1410 UTC 03 December 2021)
Data provider http://aviationweather.gov/metar/data/
 
METAR text: LOWI 031350Z 17003KT 9999 FEW040 04/M05 Q1014 NOSIG
Conditions at: LOWI (INNSBRUCK AIRPOR, AT) observed 1350 UTC 03 December 2021
Temperature: 4.0°C (39°F)
Dewpoint: -5.0°C (23°F) [RH = 52%]
Pressure (altimeter): 29.94 inches Hg (1014.0 mb)
Winds: from the S (170 degrees) at 3 MPH (3 knots; 1.5 m/s)
Visibility: 6 or more miles (10+ km)
Ceiling: at least 12,000 feet AGL
Clouds: few clouds at 4000 feet AGL
Weather: no significant weather observed at this time

METAR text: LOWI 031320Z 13003KT 090V170 9999 FEW035 03/M06 Q1014 NOSIG
Conditions at: LOWI (INNSBRUCK AIRPOR, AT) observed 1320 UTC 03 December 2021
Temperature: 3.0°C (37°F)
Dewpoint: -6.0°C (21°F) [RH = 52%]
Pressure (altimeter): 29.94 inches Hg (1014.0 mb)
Winds: from the SE (130 degrees) at 3 MPH (3 knots; 1.5 m/s)
Visibility: 6 or more miles (10+ km)
Ceiling: at least 12,000 feet AGL
Clouds: few clouds at 3500 feet AGL
Weather: no significant weather observed at this time

Forecast for: LOWI (INNSBRUCK AIRPOR, AT)
Text: TAF LOWI 031115Z 0312/0412 VRB02KT 9999 FEW040 TX03/0412Z TNM03/0321Z
Forecast period: 1200 to 2200 UTC 03 December 2021
Forecast type: FROM: standard forecast or significant change
Winds: variable direction winds at 2 MPH (2 knots; 1.0 m/s)
Visibility: 6 or more miles (10+ km)
Ceiling: at least 12,000 feet AGL
Clouds: few clouds at 4000 feet AGL
Weather: no significant weather forecast for this period
Text: BECMG 0322/0324 27008KT
Forecast period: 2200 UTC 03 December 2021 to 1200 UTC 04 December 2021
Forecast type: BECOMING: Conditions expected to become as follows by 0000 UTC 04 December 2021
Winds: from the W (270 degrees) at 9 MPH (8 knots; 4.1 m/s)
Visibility: 6 or more miles (10+ km)
Ceiling: at least 12,000 feet AGL
Clouds: few clouds at 4000 feet AGL
Weather: no significant weather forecast for this period